createdAt,value
2022-09-18T00:01:27.657Z,98964.13
2022-09-18T00:03:59.659Z,98962.03
2022-09-18T00:06:29.974Z,98941.22
2022-09-18T00:08:58.991Z,98955.53
2022-09-18T00:11:28.650Z,98961.69
2022-09-18T00:13:56.053Z,98951.91
2022-09-18T00:16:24.449Z,98951.09
2022-09-18T00:18:51.305Z,98953.09
2022-09-18T00:21:21.878Z,98951.09
2022-09-18T00:23:49.009Z,98949.00
2022-09-18T00:26:18.498Z,98937.50
2022-09-18T00:28:46.172Z,98932.16
2022-09-18T00:31:22.255Z,98927.03
2022-09-18T00:33:49.350Z,98924.59
2022-09-18T00:36:18.354Z,98911.69
2022-09-18T00:38:46.323Z,98896.56
2022-09-18T00:41:23.864Z,98901.81
2022-09-18T00:43:52.410Z,98904.84
2022-09-18T00:46:33.277Z,98897.84
2022-09-18T00:49:15.348Z,98889.91
2022-09-18T00:51:44.981Z,98901.44
2022-09-18T00:54:17.507Z,98902.00
2022-09-18T00:56:44.610Z,98900.03
2022-09-18T00:59:14.450Z,98889.78
2022-09-18T01:01:41.768Z,98885.84
2022-09-18T01:04:12.622Z,98870.75
2022-09-18T01:06:48.452Z,98875.16
2022-09-18T01:09:29.654Z,98871.56
2022-09-18T01:12:10.830Z,98879.91
2022-09-18T01:14:51.908Z,98886.31
2022-09-18T01:17:34.049Z,98873.66
2022-09-18T01:20:31.465Z,98880.97
2022-09-18T01:23:36.296Z,98882.00
2022-09-18T01:26:18.474Z,98878.31
2022-09-18T01:29:08.525Z,98860.63
2022-09-18T01:31:49.362Z,98863.06
2022-09-18T01:34:27.049Z,98857.47
2022-09-18T01:37:13.616Z,98852.13
2022-09-18T01:40:05.849Z,98839.00
2022-09-18T01:42:35.722Z,98836.56
2022-09-18T01:45:10.066Z,98815.31
2022-09-18T01:47:48.126Z,98820.53
2022-09-18T01:50:17.755Z,98820.53
2022-09-18T01:53:04.281Z,98818.88
2022-09-18T01:55:33.568Z,98812.72
2022-09-18T01:58:11.843Z,98807.62
2022-09-18T02:00:44.076Z,98809.81
2022-09-18T02:03:16.167Z,98808.19
2022-09-18T02:05:49.067Z,98804.72
2022-09-18T02:08:22.110Z,98793.22
2022-09-18T02:10:58.287Z,98799.59
2022-09-18T02:13:35.663Z,98782.75
2022-09-18T02:16:07.979Z,98781.94
2022-09-18T02:18:42.335Z,98776.59
2022-09-18T02:21:14.435Z,98774.03
2022-09-18T02:23:42.749Z,98782.41
2022-09-18T02:26:14.262Z,98772.88
2022-09-18T02:28:43.747Z,98774.63
2022-09-18T02:31:12.984Z,98771.12
2022-09-18T02:33:39.890Z,98760.69
2022-09-18T02:36:24.268Z,98754.78
2022-09-18T02:39:14.898Z,98756.03
2022-09-18T02:42:06.924Z,98744.41
2022-09-18T02:44:47.738Z,98750.69
2022-09-18T02:47:35.924Z,98723.50
2022-09-18T02:50:17.770Z,98729.53
2022-09-18T02:53:10.143Z,98717.44
2022-09-18T02:59:32.902Z,98708.06
2022-09-18T03:02:00.338Z,98708.06
2022-09-18T03:04:28.957Z,98707.47
2022-09-18T03:06:56.295Z,98689.09
2022-09-18T03:09:24.243Z,98677.84
2022-09-18T03:11:51.070Z,98682.94
2022-09-18T03:14:18.793Z,98674.37
2022-09-18T03:16:45.897Z,98676.22
2022-09-18T03:19:14.753Z,98670.53
2022-09-18T03:21:42.427Z,98660.88
2022-09-18T03:24:10.357Z,98646.03
2022-09-18T03:26:38.201Z,98658.44
2022-09-18T03:29:09.271Z,98646.72
2022-09-18T03:31:38.078Z,98646.72
2022-09-18T03:34:05.961Z,98632.91
2022-09-18T03:36:33.120Z,98637.56
2022-09-18T03:39:01.034Z,98628.50
2022-09-18T03:41:28.955Z,98628.72
2022-09-18T03:43:56.143Z,98625.03
2022-09-18T03:46:24.127Z,98612.81
2022-09-18T03:48:51.712Z,98624.91
2022-09-18T03:51:20.034Z,98615.16
2022-09-18T03:53:47.607Z,98607.16
2022-09-18T03:56:17.001Z,98611.22
2022-09-18T03:58:44.079Z,98606.44
2022-09-18T04:01:13.621Z,98598.91
2022-09-18T04:03:42.207Z,98601.09
2022-09-18T04:06:18.032Z,98591.22
2022-09-18T04:08:50.069Z,98576.97
2022-09-18T04:11:19.222Z,98584.59
2022-09-18T04:13:46.155Z,98574.38
2022-09-18T04:16:13.200Z,98557.09
2022-09-18T04:18:40.392Z,98564.16
2022-09-18T04:21:07.351Z,98560.00
2022-09-18T04:23:34.679Z,98565.22
2022-09-18T04:26:08.902Z,98561.16
2022-09-18T04:28:39.150Z,98554.75
2022-09-18T04:31:06.791Z,98553.97
2022-09-18T04:33:33.841Z,98540.03
2022-09-18T04:36:05.509Z,98533.62
2022-09-18T04:38:32.288Z,98529.91
2022-09-18T04:41:00.538Z,98516.00
2022-09-18T04:43:28.520Z,98510.66
2022-09-18T04:45:55.675Z,98512.72
2022-09-18T04:48:22.725Z,98502.06
2022-09-18T04:50:50.206Z,98498.56
2022-09-18T04:53:18.054Z,98491.37
2022-09-18T04:55:45.956Z,98492.19
2022-09-18T04:58:14.845Z,98486.03
2022-09-18T05:00:42.353Z,98475.34
2022-09-18T05:03:09.489Z,98476.72
2022-09-18T05:05:36.738Z,98471.38
2022-09-18T05:08:05.010Z,98467.91
2022-09-18T05:10:32.089Z,98448.38
2022-09-18T05:12:59.284Z,98443.88
2022-09-18T05:15:26.305Z,98462.81
2022-09-18T05:18:01.320Z,98451.22
2022-09-18T05:20:30.798Z,98466.28
2022-09-18T05:23:00.004Z,98464.66
2022-09-18T05:25:28.994Z,98443.94
2022-09-18T05:27:58.117Z,98445.41
2022-09-18T05:30:26.527Z,98436.91
2022-09-18T05:32:59.266Z,98426.94
2022-09-18T05:35:29.546Z,98418.75
2022-09-18T05:37:57.135Z,98403.81
2022-09-18T05:40:26.649Z,98404.59
2022-09-18T05:42:53.984Z,98417.41
2022-09-18T05:45:21.850Z,98412.06
2022-09-18T05:48:03.643Z,98425.97
2022-09-18T05:50:31.787Z,98408.00
2022-09-18T05:53:08.314Z,98417.97
2022-09-18T05:55:36.852Z,98401.03
2022-09-18T05:58:05.855Z,98400.31
2022-09-18T06:00:35.050Z,98408.31
2022-09-18T06:03:13.412Z,98400.91
2022-09-18T06:05:41.140Z,98391.97
2022-09-18T06:08:12.244Z,98405.16
2022-09-18T06:10:41.154Z,98406.78
2022-09-18T06:13:09.351Z,98387.06
2022-09-18T06:15:39.770Z,98379.84
2022-09-18T06:18:08.892Z,98388.91
2022-09-18T06:20:36.432Z,98384.03
2022-09-18T06:23:04.193Z,98371.59
2022-09-18T06:25:32.767Z,98355.56
2022-09-18T06:28:00.642Z,98358.22
2022-09-18T06:30:32.394Z,98354.75
2022-09-18T06:33:05.448Z,98357.19
2022-09-18T06:35:33.757Z,98340.25
2022-09-18T06:38:03.208Z,98355.91
2022-09-18T06:40:34.339Z,98350.06
2022-09-18T06:43:03.645Z,98340.19
2022-09-18T06:45:34.711Z,98333.78
2022-09-18T06:48:02.817Z,98316.87
2022-09-18T06:50:30.857Z,98338.87
2022-09-18T06:53:10.058Z,98326.09
2022-09-18T06:55:40.344Z,98323.97
2022-09-18T06:58:07.088Z,98337.91
2022-09-18T07:00:33.836Z,98322.13
2022-09-18T07:03:02.692Z,98320.00
2022-09-18T07:05:51.879Z,98316.28
2022-09-18T07:08:20.310Z,98314.34
2022-09-18T07:10:48.641Z,98328.34
2022-09-18T07:13:15.378Z,98324.87
2022-09-18T07:15:47.695Z,98325.41
2022-09-18T07:18:14.745Z,98320.91
2022-09-18T07:20:41.567Z,98318.22
2022-09-18T07:23:08.790Z,98314.22
2022-09-18T07:25:36.561Z,98311.81
2022-09-18T07:28:08.194Z,98302.25
2022-09-18T07:30:40.520Z,98289.13
2022-09-18T07:33:08.858Z,98276.81
2022-09-18T07:35:39.798Z,98276.59
2022-09-18T07:38:07.373Z,98283.38
2022-09-18T07:40:36.110Z,98258.00
2022-09-18T07:43:08.670Z,98247.91
2022-09-18T07:45:37.448Z,98256.75
2022-09-18T07:48:06.653Z,98252.78
2022-09-18T07:50:36.230Z,98242.34
2022-09-18T07:53:05.381Z,98259.09
2022-09-18T07:55:35.547Z,98254.87
2022-09-18T07:58:05.907Z,98258.69
2022-09-18T08:00:37.080Z,98259.22
2022-09-18T08:03:06.187Z,98267.34
2022-09-18T08:05:35.739Z,98275.34
2022-09-18T08:08:07.616Z,98273.47
2022-09-18T08:10:36.521Z,98279.63
2022-09-18T08:13:03.987Z,98279.56
2022-09-18T08:15:32.161Z,98278.84
2022-09-18T08:18:02.354Z,98269.13
2022-09-18T08:20:29.823Z,98271.31
2022-09-18T08:22:56.778Z,98264.72
2022-09-18T08:25:24.844Z,98265.50
2022-09-18T08:27:52.041Z,98261.78
2022-09-18T08:30:20.236Z,98257.56
2022-09-18T08:32:49.487Z,98235.84
2022-09-18T08:35:16.824Z,98250.38
2022-09-18T08:37:49.277Z,98245.34
2022-09-18T08:40:21.101Z,98232.47
2022-09-18T08:42:56.834Z,98233.09
2022-09-18T08:45:46.349Z,98236.31
2022-09-18T08:48:23.931Z,98219.72
2022-09-18T08:51:00.662Z,98235.31
2022-09-18T08:53:39.116Z,98231.56
2022-09-18T08:56:18.499Z,98217.06
2022-09-18T08:58:52.512Z,98208.00
2022-09-18T09:01:20.145Z,98201.31
2022-09-18T09:04:08.513Z,98205.97
2022-09-18T09:06:49.973Z,98207.88
2022-09-18T09:09:26.526Z,98197.16
2022-09-18T09:12:04.992Z,98193.47
2022-09-18T09:14:57.145Z,98195.09
2022-09-18T09:17:48.171Z,98202.37
2022-09-18T09:20:23.170Z,98186.59
2022-09-18T09:23:04.090Z,98188.75
2022-09-18T09:25:38.809Z,98175.34
2022-09-18T09:28:18.134Z,98167.56
2022-09-18T09:30:57.001Z,98180.78
2022-09-18T09:33:31.227Z,98181.06
2022-09-18T09:36:09.036Z,98184.84
2022-09-18T09:38:45.303Z,98172.50
2022-09-18T09:41:38.428Z,98170.13
2022-09-18T09:44:23.766Z,98173.69
2022-09-18T09:47:05.982Z,98161.09
2022-09-18T09:49:46.816Z,98164.06
2022-09-18T09:52:22.668Z,98170.78
2022-09-18T09:54:56.759Z,98171.56
2022-09-18T09:57:38.685Z,98177.75
2022-09-18T10:03:04.597Z,98178.56
2022-09-18T10:05:51.604Z,98181.78
2022-09-18T10:08:40.040Z,98170.50
2022-09-18T10:11:11.264Z,98163.53
2022-09-18T10:13:43.103Z,98174.31
2022-09-18T10:16:18.727Z,98165.75
2022-09-18T10:18:48.542Z,98152.62
2022-09-18T10:21:18.571Z,98165.31
2022-09-18T10:23:56.276Z,98175.53
2022-09-18T10:26:39.636Z,98166.97
2022-09-18T10:29:08.474Z,98157.81
2022-09-18T10:31:51.203Z,98170.41
2022-09-18T10:34:37.096Z,98163.13
2022-09-18T10:37:05.218Z,98175.78
2022-09-18T10:39:36.708Z,98169.06
2022-09-18T10:42:06.173Z,98163.97
2022-09-18T10:44:36.697Z,98161.00
2022-09-18T10:47:20.355Z,98163.44
2022-09-18T10:49:58.805Z,98168.78
2022-09-18T10:52:28.484Z,98157.03
2022-09-18T10:55:12.558Z,98148.16
2022-09-18T10:58:00.441Z,98143.31
2022-09-18T11:00:29.913Z,98146.22
2022-09-18T11:03:00.600Z,98161.56
2022-09-18T11:05:38.429Z,98164.81
2022-09-18T11:08:14.239Z,98153.81
2022-09-18T11:10:48.465Z,98140.41
2022-09-18T11:13:23.680Z,98124.59
2022-09-18T11:15:55.498Z,98124.88
2022-09-18T11:18:24.833Z,98123.56
2022-09-18T11:20:54.780Z,98125.72
2022-09-18T11:23:29.031Z,98117.69
2022-09-18T11:26:19.434Z,98112.88
2022-09-18T11:29:24.158Z,98100.53
2022-09-18T11:32:26.782Z,98104.28
2022-09-18T11:34:56.599Z,98097.59
2022-09-18T11:37:37.219Z,98094.66
2022-09-18T11:40:15.290Z,98088.22
2022-09-18T11:42:44.957Z,98082.06
2022-09-18T11:45:44.126Z,98064.09
2022-09-18T11:48:46.064Z,98065.72
2022-09-18T11:51:17.421Z,98065.22
2022-09-18T11:53:55.448Z,98067.66
2022-09-18T11:56:33.843Z,98057.44
2022-09-18T11:59:36.445Z,98044.88
2022-09-18T12:02:21.151Z,98038.97
2022-09-18T12:05:20.091Z,98033.03
2022-09-18T12:08:05.942Z,98014.28
2022-09-18T12:10:52.609Z,98008.91
2022-09-18T12:13:58.614Z,97996.59
2022-09-18T12:16:46.026Z,98005.19
2022-09-18T12:19:16.075Z,97996.59
2022-09-18T12:21:52.379Z,97993.06
2022-09-18T12:24:19.422Z,97984.22
2022-09-18T12:27:18.728Z,97971.34
2022-09-18T12:30:09.120Z,97985.28
2022-09-18T12:33:07.373Z,97979.66
2022-09-18T12:35:59.546Z,97981.81
2022-09-18T12:39:04.899Z,97964.09
2022-09-18T12:41:55.733Z,97978.31
2022-09-18T12:44:41.526Z,97982.34
2022-09-18T12:47:32.695Z,97978.84
2022-09-18T12:50:11.751Z,97971.63
2022-09-18T12:53:00.568Z,97978.34
2022-09-18T12:55:45.573Z,97964.38
2022-09-18T12:58:31.890Z,97955.78
2022-09-18T13:01:03.391Z,97931.41
2022-09-18T13:03:36.519Z,97942.09
2022-09-18T13:06:15.544Z,97927.31
2022-09-18T13:08:56.265Z,97914.44
2022-09-18T13:11:40.089Z,97913.06
2022-09-18T13:14:18.375Z,97896.13
2022-09-18T13:16:55.114Z,97895.06
2022-09-18T13:19:29.620Z,97892.13
2022-09-18T13:21:58.765Z,97878.94
2022-09-18T13:24:32.945Z,97877.91
2022-09-18T13:27:04.085Z,97883.78
2022-09-18T13:30:22.313Z,97884.84
2022-09-18T13:32:49.286Z,97861.47
2022-09-18T13:35:26.493Z,97866.34
2022-09-18T13:38:08.627Z,97868.22
2022-09-18T13:40:37.954Z,97863.09
2022-09-18T13:43:18.236Z,97858.56
2022-09-18T13:45:45.399Z,97860.16
2022-09-18T13:48:12.298Z,97862.31
2022-09-18T13:50:52.058Z,97855.81
2022-09-18T13:53:32.876Z,97870.28
2022-09-18T13:55:59.721Z,97855.72
2022-09-18T13:58:36.018Z,97844.09
2022-09-18T14:01:07.912Z,97858.25
2022-09-18T14:03:40.628Z,97850.94
2022-09-18T14:06:35.282Z,97859.25
2022-09-18T14:09:23.397Z,97858.63
2022-09-18T14:11:50.294Z,97858.63
2022-09-18T14:14:22.783Z,97860.28
2022-09-18T14:16:50.894Z,97872.63
2022-09-18T14:19:32.157Z,97864.63
2022-09-18T14:22:00.832Z,97876.44
2022-09-18T14:24:50.666Z,97861.16
2022-09-18T14:27:37.692Z,97871.19
2022-09-18T14:30:15.282Z,97885.19
2022-09-18T14:32:53.238Z,97888.69
2022-09-18T14:35:42.134Z,97887.41
2022-09-18T14:38:33.125Z,97895.47
2022-09-18T14:41:02.879Z,97893.84
2022-09-18T14:43:29.467Z,97890.13
2022-09-18T14:45:56.310Z,97891.19
2022-09-18T14:48:30.419Z,97886.38
2022-09-18T14:50:59.861Z,97903.06
2022-09-18T14:53:28.571Z,97897.72
2022-09-18T14:56:04.094Z,97896.66
2022-09-18T14:58:37.901Z,97893.41
2022-09-18T15:01:15.026Z,97898.28
2022-09-18T15:03:45.350Z,97890.00
2022-09-18T15:06:24.236Z,97896.44
2022-09-18T15:08:54.411Z,97885.44
2022-09-18T15:11:24.806Z,97891.63
2022-09-18T15:13:53.315Z,97877.44
2022-09-18T15:16:31.558Z,97886.03
2022-09-18T15:19:00.484Z,97861.94
2022-09-18T15:21:33.547Z,97885.78
2022-09-18T15:24:02.534Z,97883.91
2022-09-18T15:26:44.823Z,97895.22
2022-09-18T15:29:19.290Z,97895.19
2022-09-18T15:31:46.428Z,97903.25
2022-09-18T15:34:20.783Z,97901.12
2022-09-18T15:36:56.567Z,97876.19
2022-09-18T15:39:32.747Z,97887.72
2022-09-18T15:42:18.594Z,97897.66
2022-09-18T15:45:10.302Z,97896.03
2022-09-18T15:47:39.300Z,97896.31
2022-09-18T15:50:12.431Z,97893.62
2022-09-18T15:52:40.880Z,97884.47
2022-09-18T15:55:10.772Z,97895.75
2022-09-18T15:57:38.618Z,97894.09
2022-09-18T16:00:10.788Z,97877.47
2022-09-18T16:02:39.331Z,97888.47
2022-09-18T16:05:15.256Z,97884.44
2022-09-18T16:07:52.636Z,97893.53
2022-09-18T16:10:34.710Z,97874.25
2022-09-18T16:13:06.873Z,97876.69
2022-09-18T16:15:35.682Z,97863.00
2022-09-18T16:18:03.999Z,97868.84
2022-09-18T16:20:32.032Z,97870.44
2022-09-18T16:23:17.089Z,97869.34
2022-09-18T16:25:44.912Z,97872.03
2022-09-18T16:28:26.982Z,97869.31
2022-09-18T16:30:54.120Z,97868.72
2022-09-18T16:33:26.994Z,97877.28
2022-09-18T16:36:01.552Z,97873.00
2022-09-18T16:38:29.789Z,97874.34
2022-09-18T16:40:56.791Z,97872.19
2022-09-18T16:43:24.419Z,97873.50
2022-09-18T16:45:51.617Z,97874.03
2022-09-18T16:48:19.116Z,97877.75
2022-09-18T16:50:47.513Z,97873.19
2022-09-18T16:53:15.078Z,97874.81
2022-09-18T16:55:46.937Z,97878.25
2022-09-18T16:58:15.124Z,97895.69
2022-09-18T17:00:41.976Z,97871.28
2022-09-18T17:03:08.817Z,97890.59
2022-09-18T17:05:36.025Z,97889.75
2022-09-18T17:08:04.002Z,97878.47
2022-09-18T17:10:31.861Z,97886.50
2022-09-18T17:12:59.008Z,97892.63
2022-09-18T17:15:25.870Z,97885.34
2022-09-18T17:17:53.046Z,97901.66
2022-09-18T17:20:19.994Z,97905.09
2022-09-18T17:22:47.356Z,97917.59
2022-09-18T17:25:15.479Z,97948.53
2022-09-18T17:27:43.821Z,97970.94
2022-09-18T17:30:11.798Z,97978.03
2022-09-18T17:32:38.863Z,97993.91
2022-09-18T17:35:06.604Z,97991.13
2022-09-18T17:37:33.327Z,98005.97
2022-09-18T17:40:00.977Z,98021.56
2022-09-18T17:42:28.063Z,98050.53
2022-09-18T17:44:54.709Z,98043.38
2022-09-18T17:47:21.513Z,98071.06
2022-09-18T17:49:48.588Z,98081.81
2022-09-18T17:52:15.537Z,98093.16
2022-09-18T17:54:42.389Z,98091.56
2022-09-18T17:57:11.887Z,98108.59
2022-09-18T17:59:40.386Z,98119.84
2022-09-18T18:02:08.908Z,98147.25
2022-09-18T18:04:36.434Z,98147.16
2022-09-18T18:07:05.019Z,98156.13
2022-09-18T18:09:34.390Z,98188.22
2022-09-18T18:12:01.798Z,98184.69
2022-09-18T18:14:29.116Z,98186.59
2022-09-18T18:16:55.807Z,98221.22
2022-09-18T18:19:22.817Z,98223.53
2022-09-18T18:21:49.477Z,98229.25
2022-09-18T18:24:18.442Z,98244.31
2022-09-18T18:26:47.123Z,98244.22
2022-09-18T18:29:16.764Z,98266.31
2022-09-18T18:31:43.924Z,98273.84
2022-09-18T18:34:12.075Z,98268.66
2022-09-18T18:36:41.488Z,98283.22
2022-09-18T18:39:12.220Z,98298.88
2022-09-18T18:41:39.606Z,98316.09
2022-09-18T18:44:07.082Z,98314.13
2022-09-18T18:46:36.218Z,98333.94
2022-09-18T18:49:10.151Z,98340.75
2022-09-18T18:51:47.620Z,98349.88
2022-09-18T18:54:21.357Z,98363.75
2022-09-18T18:56:49.114Z,98376.28
2022-09-18T18:59:18.439Z,98384.09
2022-09-18T19:01:45.525Z,98388.84
2022-09-18T19:04:15.040Z,98417.09
2022-09-18T19:06:43.896Z,98410.38
2022-09-18T19:09:20.630Z,98423.34
2022-09-18T19:11:49.471Z,98421.13
2022-09-18T19:14:22.834Z,98429.78
2022-09-18T19:16:51.064Z,98427.34
2022-09-18T19:19:20.146Z,98438.00
2022-09-18T19:21:47.906Z,98436.38
2022-09-18T19:24:16.565Z,98439.03
2022-09-18T19:26:43.323Z,98440.50
2022-09-18T19:29:15.675Z,98459.63
2022-09-18T19:31:44.898Z,98464.50
2022-09-18T19:34:13.936Z,98478.84
2022-09-18T19:36:40.733Z,98481.72
2022-09-18T19:39:11.146Z,98485.06
2022-09-18T19:41:59.371Z,98485.81
2022-09-18T19:44:33.636Z,98486.16
2022-09-18T19:47:04.554Z,98481.50
2022-09-18T19:49:41.029Z,98482.78
2022-09-18T19:52:18.097Z,98505.09
2022-09-18T19:54:47.140Z,98528.38
2022-09-18T19:57:14.943Z,98520.63
2022-09-18T19:59:41.890Z,98524.97
2022-09-18T20:02:13.008Z,98532.16
2022-09-18T20:04:41.052Z,98538.50
2022-09-18T20:07:08.814Z,98540.59
2022-09-18T20:09:35.535Z,98539.47
2022-09-18T20:12:02.535Z,98544.13
2022-09-18T20:14:29.178Z,98548.62
2022-09-18T20:16:56.742Z,98561.13
2022-09-18T20:19:24.468Z,98567.34
2022-09-18T20:21:52.357Z,98570.34
2022-09-18T20:24:19.423Z,98575.47
2022-09-18T20:26:46.763Z,98584.50
2022-09-18T20:29:16.753Z,98577.97
2022-09-18T20:31:46.033Z,98587.38
2022-09-18T20:34:13.852Z,98598.25
2022-09-18T20:36:40.451Z,98597.03
2022-09-18T20:39:07.445Z,98591.28
2022-09-18T20:41:35.600Z,98589.63
2022-09-18T20:44:04.995Z,98601.91
2022-09-18T20:46:36.913Z,98611.53
2022-09-18T20:49:04.289Z,98620.09
2022-09-18T20:51:34.710Z,98613.44
2022-09-18T20:54:03.597Z,98618.75
2022-09-18T20:56:33.252Z,98637.31
2022-09-18T20:59:04.822Z,98635.25
2022-09-18T21:01:35.432Z,98624.66
2022-09-18T21:04:02.517Z,98640.38
2022-09-18T21:06:32.019Z,98630.22
2022-09-18T21:09:00.889Z,98626.97
2022-09-18T21:11:30.150Z,98634.13
2022-09-18T21:14:00.094Z,98628.81
2022-09-18T21:16:29.715Z,98636.37
2022-09-18T21:18:59.310Z,98634.72
2022-09-18T21:21:28.230Z,98624.13
2022-09-18T21:24:01.487Z,98632.88
2022-09-18T21:26:35.780Z,98637.37
2022-09-18T21:29:12.653Z,98639.81
2022-09-18T21:31:43.718Z,98636.37
2022-09-18T21:34:13.425Z,98649.44
2022-09-18T21:36:44.896Z,98645.72
2022-09-18T21:39:13.008Z,98644.16
2022-09-18T21:41:40.086Z,98656.16
2022-09-18T21:44:13.133Z,98653.94
2022-09-18T21:46:40.257Z,98650.25
2022-09-18T21:49:08.845Z,98662.75
2022-09-18T21:51:37.264Z,98658.00
2022-09-18T21:54:05.607Z,98666.00
2022-09-18T21:56:33.466Z,98641.69
2022-09-18T21:59:00.359Z,98657.56
2022-09-18T22:01:32.078Z,98664.75
2022-09-18T22:04:00.963Z,98671.69
2022-09-18T22:06:30.695Z,98653.94
2022-09-18T22:08:59.054Z,98672.72
2022-09-18T22:11:29.268Z,98667.84
2022-09-18T22:14:02.556Z,98681.50
2022-09-18T22:16:29.647Z,98670.94
2022-09-18T22:18:56.630Z,98683.59
2022-09-18T22:21:29.139Z,98681.72
2022-09-18T22:24:01.684Z,98686.03
2022-09-18T22:26:28.557Z,98688.06
2022-09-18T22:28:56.967Z,98694.97
2022-09-18T22:31:24.868Z,98705.41
2022-09-18T22:33:57.026Z,98689.44
2022-09-18T22:36:25.330Z,98694.31
2022-09-18T22:38:53.235Z,98690.63
2022-09-18T22:41:20.184Z,98688.59
2022-09-18T22:43:47.555Z,98671.62
2022-09-18T22:46:16.805Z,98699.59
2022-09-18T22:48:44.130Z,98690.37
2022-09-18T22:51:15.419Z,98691.97
2022-09-18T22:53:54.345Z,98691.53
2022-09-18T22:56:22.564Z,98690.16
2022-09-18T22:58:50.356Z,98685.62
2022-09-18T23:01:23.835Z,98688.88
2022-09-18T23:03:54.178Z,98693.09
2022-09-18T23:06:25.252Z,98692.06
2022-09-18T23:08:53.634Z,98687.63
2022-09-18T23:11:23.129Z,98703.53
2022-09-18T23:13:55.281Z,98698.22
2022-09-18T23:16:23.998Z,98705.16
2022-09-18T23:18:55.692Z,98700.66
2022-09-18T23:21:23.082Z,98703.94
2022-09-18T23:23:50.305Z,98699.41
2022-09-18T23:26:25.723Z,98711.84
2022-09-18T23:28:55.168Z,98689.37
2022-09-18T23:31:23.644Z,98703.63
2022-09-18T23:33:52.743Z,98707.13
2022-09-18T23:36:25.634Z,98709.94
2022-09-18T23:39:01.712Z,98716.28
2022-09-18T23:41:36.319Z,98720.72
2022-09-18T23:44:05.063Z,98714.38
2022-09-18T23:46:33.091Z,98712.28
2022-09-18T23:49:00.310Z,98725.03
2022-09-18T23:51:30.635Z,98730.53
2022-09-18T23:54:00.547Z,98732.12
2022-09-18T23:56:29.739Z,98746.88
2022-09-18T23:58:58.969Z,98731.47
